createdAt,value
2023-01-11T00:00:40.363Z,88.12
2023-01-11T00:03:06.988Z,87.76
2023-01-11T00:05:40.646Z,88.44
2023-01-11T00:08:08.179Z,88.93
2023-01-11T00:10:34.788Z,89.74
2023-01-11T00:13:01.775Z,89.05
2023-01-11T00:15:28.433Z,88.67
2023-01-11T00:17:54.906Z,89.08
2023-01-11T00:20:21.515Z,88.14
2023-01-11T00:22:47.985Z,89.18
2023-01-11T00:25:14.502Z,89.21
2023-01-11T00:27:41.046Z,88.83
2023-01-11T00:30:08.121Z,89.66
2023-01-11T00:32:34.546Z,90.55
2023-01-11T00:35:01.190Z,90.21
2023-01-11T00:37:27.631Z,89.04
2023-01-11T00:39:54.092Z,89.38
2023-01-11T00:42:39.178Z,89.83
2023-01-11T00:45:24.831Z,88.89
2023-01-11T00:47:57.364Z,88.00
2023-01-11T00:50:25.132Z,89.29
2023-01-11T00:52:51.610Z,89.53
2023-01-11T00:55:18.109Z,88.99
2023-01-11T00:57:44.549Z,88.64
2023-01-11T01:00:11.805Z,89.50
2023-01-11T01:02:38.341Z,88.88
2023-01-11T01:05:05.200Z,89.04
2023-01-11T01:07:31.814Z,90.31
2023-01-11T01:09:58.267Z,89.85
2023-01-11T01:12:43.451Z,89.19
2023-01-11T01:15:10.332Z,90.28
2023-01-11T01:17:36.787Z,90.26
2023-01-11T01:20:04.010Z,90.81
2023-01-11T01:22:30.514Z,89.76
2023-01-11T01:24:56.942Z,89.81
2023-01-11T01:27:23.501Z,90.32
2023-01-11T01:29:50.009Z,89.72
2023-01-11T01:32:16.498Z,89.47
2023-01-11T01:34:42.933Z,88.39
2023-01-11T01:37:11.387Z,88.90
2023-01-11T01:39:37.889Z,89.86
2023-01-11T01:42:06.006Z,89.92
2023-01-11T01:44:55.301Z,89.91
2023-01-11T01:47:28.766Z,90.74
2023-01-11T01:49:57.367Z,90.36
2023-01-11T01:52:29.105Z,89.61
2023-01-11T01:54:58.040Z,92.19
2023-01-11T01:57:27.744Z,93.09
2023-01-11T01:59:56.001Z,90.78
2023-01-11T02:02:24.480Z,90.81
2023-01-11T02:04:51.452Z,88.38
2023-01-11T02:07:20.211Z,89.34
2023-01-11T02:09:51.587Z,88.94
2023-01-11T02:12:18.774Z,88.27
2023-01-11T02:14:47.269Z,89.89
2023-01-11T02:17:13.999Z,90.09
2023-01-11T02:20:02.645Z,90.10
2023-01-11T02:22:44.290Z,90.21
2023-01-11T02:25:40.116Z,90.32
2023-01-11T02:28:11.205Z,90.25
2023-01-11T02:30:43.716Z,87.86
2023-01-11T02:33:22.417Z,89.03
2023-01-11T02:36:03.947Z,91.03
2023-01-11T02:38:58.381Z,89.23
2023-01-11T02:42:10.166Z,88.67
2023-01-11T02:45:01.472Z,88.81
2023-01-11T02:47:39.997Z,89.37
2023-01-11T02:50:11.657Z,91.32
2023-01-11T02:53:00.119Z,91.62
2023-01-11T02:55:30.470Z,90.79
2023-01-11T02:58:00.844Z,91.43
2023-01-11T03:00:27.463Z,90.44
2023-01-11T03:03:16.216Z,91.31
2023-01-11T03:05:55.025Z,91.35
2023-01-11T03:08:33.737Z,91.99
2023-01-11T03:11:03.198Z,90.05
2023-01-11T03:13:46.960Z,89.47
2023-01-11T03:16:19.059Z,90.61
2023-01-11T03:18:59.662Z,89.54
2023-01-11T03:21:50.841Z,91.58
2023-01-11T03:24:31.144Z,91.13
2023-01-11T03:27:18.012Z,92.13
2023-01-11T03:29:54.593Z,92.44
2023-01-11T03:32:24.344Z,90.90
2023-01-11T03:34:58.855Z,89.91
2023-01-11T03:37:42.513Z,92.41
2023-01-11T03:40:37.255Z,90.95
2023-01-11T03:43:12.463Z,90.47
2023-01-11T03:45:52.871Z,91.93
2023-01-11T03:48:29.401Z,92.53
2023-01-11T03:50:56.677Z,90.88
2023-01-11T03:53:24.112Z,92.16
2023-01-11T03:55:54.915Z,92.79
2023-01-11T03:58:21.683Z,91.28
2023-01-11T04:00:49.047Z,91.94
2023-01-11T04:03:15.736Z,92.22
2023-01-11T04:05:44.026Z,91.47
2023-01-11T04:08:11.554Z,92.93
2023-01-11T04:10:38.211Z,91.87
2023-01-11T04:13:04.735Z,91.25
2023-01-11T04:15:32.724Z,92.67
2023-01-11T04:18:04.890Z,89.95
2023-01-11T04:20:33.145Z,92.68
2023-01-11T04:22:59.593Z,91.71
2023-01-11T04:25:26.319Z,91.86
2023-01-11T04:27:52.805Z,91.15
2023-01-11T04:30:19.406Z,92.09
2023-01-11T04:32:45.878Z,92.60
2023-01-11T04:35:12.437Z,92.04
2023-01-11T04:37:38.913Z,91.83
2023-01-11T04:40:06.112Z,91.02
2023-01-11T04:42:32.623Z,90.85
2023-01-11T04:44:59.095Z,92.29
2023-01-11T04:47:25.874Z,92.73
2023-01-11T04:49:52.610Z,92.29
2023-01-11T04:52:20.231Z,89.87
2023-01-11T04:54:48.733Z,90.83
2023-01-11T04:57:17.128Z,90.92
2023-01-11T04:59:43.607Z,91.78
2023-01-11T05:02:10.052Z,90.26
2023-01-11T05:04:36.549Z,89.24
2023-01-11T05:07:03.093Z,91.48
2023-01-11T05:09:29.599Z,91.43
2023-01-11T05:11:56.071Z,92.74
2023-01-11T05:14:22.642Z,90.86
2023-01-11T05:16:49.219Z,91.47
2023-01-11T05:19:15.741Z,91.41
2023-01-11T05:21:42.519Z,89.77
2023-01-11T05:24:12.763Z,88.79
2023-01-11T05:26:40.963Z,89.40
2023-01-11T05:29:10.803Z,89.19
2023-01-11T05:31:40.122Z,89.53
2023-01-11T05:34:07.079Z,90.01
2023-01-11T05:36:34.196Z,90.25
2023-01-11T05:39:00.686Z,89.58
2023-01-11T05:41:27.976Z,90.60
2023-01-11T05:44:13.709Z,90.61
2023-01-11T05:46:41.897Z,89.87
2023-01-11T05:49:09.593Z,90.72
2023-01-11T05:51:38.057Z,91.47
2023-01-11T05:54:06.961Z,88.97
2023-01-11T05:56:33.474Z,90.66
2023-01-11T05:59:00.025Z,90.66
2023-01-11T06:01:26.927Z,91.50
2023-01-11T06:03:53.459Z,91.36
2023-01-11T06:06:20.902Z,90.71
2023-01-11T06:08:47.524Z,91.69
2023-01-11T06:11:14.931Z,90.47
2023-01-11T06:13:41.920Z,90.36
2023-01-11T06:16:16.910Z,89.35
2023-01-11T06:18:46.030Z,91.63
2023-01-11T06:21:13.174Z,90.05
2023-01-11T06:23:41.863Z,90.06
2023-01-11T06:26:10.805Z,90.16
2023-01-11T06:28:37.920Z,89.75
2023-01-11T06:31:05.467Z,89.91
2023-01-11T06:33:32.226Z,87.64
2023-01-11T06:35:59.172Z,89.39
2023-01-11T06:38:26.106Z,89.14
2023-01-11T06:40:54.023Z,89.33
2023-01-11T06:43:21.507Z,88.28
2023-01-11T06:45:48.078Z,88.34
2023-01-11T06:48:14.758Z,90.61
2023-01-11T06:50:41.234Z,87.81
2023-01-11T06:53:07.714Z,89.58
2023-01-11T06:55:34.164Z,89.27
2023-01-11T06:58:00.621Z,90.07
2023-01-11T07:00:27.275Z,87.57
2023-01-11T07:02:53.819Z,87.50
2023-01-11T07:05:20.344Z,87.00
2023-01-11T07:07:46.880Z,89.66
2023-01-11T07:10:15.392Z,88.54
2023-01-11T07:12:42.149Z,90.13
2023-01-11T07:15:10.240Z,89.15
2023-01-11T07:17:37.116Z,89.45
2023-01-11T07:20:04.988Z,87.55
2023-01-11T07:22:35.270Z,87.35
2023-01-11T07:25:02.196Z,87.77
2023-01-11T07:27:28.659Z,86.38
2023-01-11T07:29:55.143Z,86.22
2023-01-11T07:32:21.589Z,86.77
2023-01-11T07:34:48.092Z,88.49
2023-01-11T07:37:28.478Z,87.08
2023-01-11T07:39:55.640Z,86.76
2023-01-11T07:42:40.873Z,85.59
2023-01-11T07:45:08.005Z,85.40
2023-01-11T07:47:34.464Z,83.92
2023-01-11T07:50:00.930Z,83.52
2023-01-11T07:52:27.437Z,85.64
2023-01-11T07:54:53.887Z,85.97
2023-01-11T07:57:20.423Z,86.08
2023-01-11T07:59:46.882Z,85.45
2023-01-11T08:02:13.316Z,85.71
2023-01-11T08:04:39.757Z,86.33
2023-01-11T08:07:06.256Z,87.34
2023-01-11T08:09:32.759Z,85.92
2023-01-11T08:12:17.799Z,86.01
2023-01-11T08:14:44.263Z,85.96
2023-01-11T08:17:15.703Z,86.05
2023-01-11T08:19:42.980Z,86.26
2023-01-11T08:22:10.045Z,86.22
2023-01-11T08:24:36.570Z,85.64
2023-01-11T08:27:03.912Z,86.51
2023-01-11T08:29:30.678Z,86.72
2023-01-11T08:31:57.257Z,87.36
2023-01-11T08:34:23.784Z,85.40
2023-01-11T08:36:50.238Z,84.70
2023-01-11T08:39:16.724Z,86.69
2023-01-11T08:41:43.212Z,86.09
2023-01-11T08:44:11.837Z,86.70
2023-01-11T08:46:38.485Z,85.92
2023-01-11T08:49:11.165Z,86.58
2023-01-11T08:51:41.562Z,86.10
2023-01-11T08:54:12.879Z,87.24
2023-01-11T08:56:39.500Z,86.69
2023-01-11T08:59:06.839Z,85.69
2023-01-11T09:01:33.680Z,85.37
2023-01-11T09:04:00.268Z,84.83
2023-01-11T09:06:26.835Z,83.70
2023-01-11T09:08:53.488Z,85.40
2023-01-11T09:11:38.478Z,82.93
2023-01-11T09:14:04.953Z,83.91
2023-01-11T09:16:31.476Z,84.71
2023-01-11T09:18:58.013Z,85.82
2023-01-11T09:21:24.440Z,83.33
2023-01-11T09:23:50.917Z,84.56
2023-01-11T09:26:17.455Z,83.83
2023-01-11T09:28:43.993Z,84.38
2023-01-11T09:31:10.588Z,82.66
2023-01-11T09:33:38.494Z,83.40
2023-01-11T09:36:05.931Z,83.47
2023-01-11T09:38:34.002Z,82.64
2023-01-11T09:41:17.805Z,84.00
2023-01-11T09:43:51.464Z,84.28
2023-01-11T09:46:18.396Z,83.49
2023-01-11T09:48:48.471Z,82.47
2023-01-11T09:51:16.561Z,83.10
2023-01-11T09:53:49.463Z,83.13
2023-01-11T09:56:24.651Z,80.83
2023-01-11T09:58:57.360Z,82.55
2023-01-11T10:01:33.744Z,83.49
2023-01-11T10:04:06.281Z,82.30
2023-01-11T10:06:56.148Z,80.18
2023-01-11T10:18:31.356Z,82.11
2023-01-11T10:18:58.281Z,82.51
2023-01-11T10:21:29.822Z,84.16
2023-01-11T10:24:02.765Z,84.02
2023-01-11T10:26:37.290Z,84.48
2023-01-11T10:29:49.815Z,83.45
2023-01-11T10:32:40.067Z,84.06
2023-01-11T10:35:25.988Z,82.59
2023-01-11T10:38:28.086Z,83.18
2023-01-11T10:41:10.447Z,82.36
2023-01-11T10:43:43.176Z,82.29
2023-01-11T10:46:21.556Z,82.91
2023-01-11T10:48:50.970Z,81.29
2023-01-11T10:51:24.765Z,82.06
2023-01-11T10:54:16.173Z,83.61
2023-01-11T10:57:04.790Z,83.02
2023-01-11T10:59:43.997Z,84.10
2023-01-11T11:02:52.636Z,81.92
2023-01-11T11:05:35.713Z,83.12
2023-01-11T11:08:14.710Z,80.25
2023-01-11T11:10:59.031Z,81.28
2023-01-11T11:13:50.340Z,80.10
2023-01-11T11:16:22.985Z,80.54
2023-01-11T11:18:54.430Z,81.62
2023-01-11T11:21:30.877Z,82.39
2023-01-11T11:24:01.097Z,82.01
2023-01-11T11:26:38.420Z,81.56
2023-01-11T11:29:10.665Z,80.68
2023-01-11T11:31:42.900Z,82.29
2023-01-11T11:34:16.268Z,80.90
2023-01-11T11:36:44.538Z,81.20
2023-01-11T11:39:30.515Z,80.90
2023-01-11T11:42:05.383Z,81.50
2023-01-11T11:44:32.003Z,80.02
2023-01-11T11:47:06.021Z,80.39
2023-01-11T11:49:34.414Z,81.58
2023-01-11T11:52:02.735Z,81.45
2023-01-11T11:54:35.393Z,82.97
2023-01-11T11:57:29.674Z,82.52
2023-01-11T12:00:09.106Z,82.69
2023-01-11T12:02:37.233Z,80.65
2023-01-11T12:05:09.604Z,82.28
2023-01-11T12:07:54.656Z,81.18
2023-01-11T12:10:26.806Z,82.63
2023-01-11T12:12:53.276Z,81.79
2023-01-11T12:15:28.960Z,81.33
2023-01-11T12:17:57.413Z,82.11
2023-01-11T12:20:23.867Z,82.31
2023-01-11T12:22:51.415Z,80.20
2023-01-11T12:25:25.292Z,80.93
2023-01-11T12:28:28.252Z,81.42
2023-01-11T12:31:13.713Z,81.16
2023-01-11T12:34:13.988Z,81.26
2023-01-11T12:36:53.672Z,82.44
2023-01-11T12:39:38.915Z,79.47
2023-01-11T12:42:24.239Z,80.09
2023-01-11T12:45:20.469Z,80.16
2023-01-11T12:48:07.781Z,79.04
2023-01-11T12:50:59.632Z,77.74
2023-01-11T12:54:00.056Z,76.73
2023-01-11T12:56:44.273Z,76.87
2023-01-11T12:59:44.551Z,76.98
2023-01-11T13:02:21.772Z,77.37
2023-01-11T13:04:52.954Z,77.31
2023-01-11T13:07:34.643Z,77.75
2023-01-11T13:10:16.967Z,77.86
2023-01-11T13:12:48.271Z,79.32
2023-01-11T13:15:26.798Z,78.43
2023-01-11T13:18:20.649Z,78.77
2023-01-11T13:21:02.855Z,78.00
2023-01-11T13:23:41.946Z,78.26
2023-01-11T13:26:23.474Z,77.25
2023-01-11T13:28:55.241Z,77.36
2023-01-11T13:31:22.115Z,78.54
2023-01-11T13:33:54.083Z,78.16
2023-01-11T13:36:26.343Z,76.52
2023-01-11T13:41:29.008Z,77.83
2023-01-11T13:44:15.339Z,75.35
2023-01-11T13:47:03.001Z,76.17
2023-01-11T13:49:42.746Z,78.58
2023-01-11T13:52:14.978Z,76.44
2023-01-11T13:54:44.380Z,75.96
2023-01-11T13:57:15.316Z,75.95
2023-01-11T13:59:45.959Z,76.60
2023-01-11T14:02:23.563Z,76.70
2023-01-11T14:05:21.278Z,75.23
2023-01-11T14:08:00.889Z,75.53
2023-01-11T14:10:40.491Z,74.79
2023-01-11T14:13:48.390Z,75.44
2023-01-11T14:16:28.989Z,75.14
2023-01-11T14:19:17.230Z,74.07
2023-01-11T14:21:43.673Z,74.26
2023-01-11T14:24:10.363Z,74.17
2023-01-11T14:26:50.806Z,75.63
2023-01-11T14:29:35.732Z,74.37
2023-01-11T14:32:31.291Z,75.70
2023-01-11T14:35:41.019Z,76.86
2023-01-11T14:38:27.760Z,74.83
2023-01-11T14:41:29.451Z,73.48
2023-01-11T14:44:14.162Z,75.06
2023-01-11T14:46:51.505Z,75.54
2023-01-11T14:49:44.967Z,74.69
2023-01-11T14:52:12.252Z,75.54
2023-01-11T14:54:44.149Z,75.16
2023-01-11T14:57:40.822Z,73.69
2023-01-11T15:00:19.399Z,75.10
2023-01-11T15:02:47.572Z,75.16
2023-01-11T15:05:29.387Z,76.09
2023-01-11T15:08:13.041Z,74.90
2023-01-11T15:11:23.963Z,74.78
2023-01-11T15:13:57.487Z,75.14
2023-01-11T15:16:45.563Z,75.13
2023-01-11T15:19:23.398Z,75.48
2023-01-11T15:21:53.260Z,74.92
2023-01-11T15:24:30.208Z,75.51
2023-01-11T15:26:59.067Z,76.39
2023-01-11T15:29:56.014Z,76.69
2023-01-11T15:32:31.180Z,75.86
2023-01-11T15:35:22.495Z,76.95
2023-01-11T15:37:58.200Z,77.33
2023-01-11T15:40:32.008Z,76.75
2023-01-11T15:43:25.884Z,78.50
2023-01-11T15:46:14.118Z,75.88
2023-01-11T15:49:18.737Z,76.41
2023-01-11T15:52:29.433Z,76.84
2023-01-11T15:55:34.614Z,75.28
2023-01-11T15:58:23.935Z,74.02
2023-01-11T16:01:19.414Z,76.41
2023-01-11T16:04:15.434Z,74.64
2023-01-11T16:06:50.026Z,75.04
2023-01-11T16:09:53.969Z,76.31
2023-01-11T16:12:48.238Z,76.54
2023-01-11T16:16:03.722Z,76.06
2023-01-11T16:18:35.520Z,77.78
2023-01-11T16:21:05.027Z,77.61
2023-01-11T16:23:32.489Z,77.89
2023-01-11T16:25:59.330Z,78.23
2023-01-11T16:28:26.519Z,78.26
2023-01-11T16:31:04.919Z,78.97
2023-01-11T16:33:33.560Z,79.86
2023-01-11T16:36:23.752Z,78.67
2023-01-11T16:39:12.058Z,78.98
2023-01-11T16:41:46.380Z,78.98
2023-01-11T16:44:27.199Z,77.37
2023-01-11T16:47:11.223Z,79.43
2023-01-11T16:49:38.768Z,78.16
2023-01-11T16:52:27.088Z,80.07
2023-01-11T16:54:55.119Z,79.03
2023-01-11T16:57:31.278Z,79.51
2023-01-11T17:00:01.732Z,77.92
2023-01-11T17:02:40.105Z,78.65
2023-01-11T17:05:21.634Z,79.35
2023-01-11T17:07:48.084Z,79.08
2023-01-11T17:10:27.863Z,78.28
2023-01-11T17:13:45.649Z,79.22
2023-01-11T17:16:14.851Z,77.64
2023-01-11T17:18:42.817Z,76.54
2023-01-11T17:21:20.054Z,76.95
2023-01-11T17:23:48.036Z,77.92
2023-01-11T17:26:17.374Z,78.12
2023-01-11T17:28:45.418Z,78.80
2023-01-11T17:31:20.531Z,78.84
2023-01-11T17:33:48.786Z,78.65
2023-01-11T17:36:16.422Z,79.30
2023-01-11T17:38:44.348Z,79.93
2023-01-11T17:41:31.006Z,79.03
2023-01-11T17:44:16.072Z,80.92
2023-01-11T17:46:42.652Z,80.32
2023-01-11T17:49:21.113Z,80.73
2023-01-11T17:51:47.614Z,80.15
2023-01-11T17:54:21.583Z,80.30
2023-01-11T17:56:56.844Z,79.38
2023-01-11T17:59:25.185Z,78.95
2023-01-11T18:02:03.924Z,79.37
2023-01-11T18:04:31.474Z,81.32
2023-01-11T18:07:07.695Z,80.17
2023-01-11T18:09:37.630Z,79.76
2023-01-11T18:12:21.532Z,79.31
2023-01-11T18:15:00.357Z,79.05
2023-01-11T18:17:37.347Z,79.09
2023-01-11T18:20:29.701Z,78.99
2023-01-11T18:22:56.252Z,79.80
2023-01-11T18:25:31.032Z,79.31
2023-01-11T18:28:17.723Z,77.85
2023-01-11T18:30:54.865Z,78.78
2023-01-11T18:33:23.914Z,78.78
2023-01-11T18:35:52.653Z,77.32
2023-01-11T18:38:24.328Z,77.22
2023-01-11T18:40:52.122Z,76.56
2023-01-11T18:43:25.217Z,78.63
2023-01-11T18:45:52.019Z,79.21
2023-01-11T18:48:18.507Z,78.04
2023-01-11T18:50:45.360Z,77.61
2023-01-11T18:53:12.735Z,76.70
2023-01-11T18:55:39.601Z,76.53
2023-01-11T18:58:06.331Z,79.16
2023-01-11T19:00:32.905Z,77.12
2023-01-11T19:02:59.583Z,77.17
2023-01-11T19:05:29.121Z,76.40
2023-01-11T19:07:55.606Z,76.71
2023-01-11T19:10:22.935Z,77.25
2023-01-11T19:12:50.747Z,76.49
2023-01-11T19:15:17.376Z,77.08
2023-01-11T19:17:43.902Z,76.53
2023-01-11T19:20:11.134Z,76.02
2023-01-11T19:22:38.205Z,76.65
2023-01-11T19:25:06.770Z,76.10
2023-01-11T19:27:33.264Z,76.77
2023-01-11T19:29:59.779Z,77.31
2023-01-11T19:32:26.252Z,76.68
2023-01-11T19:34:53.516Z,77.01
2023-01-11T19:37:20.781Z,76.40
2023-01-11T19:39:47.370Z,77.38
2023-01-11T19:42:13.855Z,77.70
2023-01-11T19:44:40.372Z,75.65
2023-01-11T19:47:12.103Z,76.03
2023-01-11T19:49:40.274Z,75.86
2023-01-11T19:52:12.569Z,76.77
2023-01-11T19:54:43.320Z,76.84
2023-01-11T19:57:18.935Z,75.75
2023-01-11T19:59:45.528Z,77.15
2023-01-11T20:02:13.821Z,76.41
2023-01-11T20:04:40.658Z,74.65
2023-01-11T20:07:08.358Z,77.28
2023-01-11T20:09:37.789Z,77.59
2023-01-11T20:12:06.117Z,76.80
2023-01-11T20:14:33.868Z,76.14
2023-01-11T20:17:00.408Z,76.80
2023-01-11T20:19:27.003Z,75.90
2023-01-11T20:21:53.546Z,75.63
2023-01-11T20:24:20.047Z,75.72
2023-01-11T20:26:48.719Z,77.49
2023-01-11T20:29:15.339Z,75.20
2023-01-11T20:31:41.779Z,75.98
2023-01-11T20:34:11.077Z,76.95
2023-01-11T20:36:37.691Z,75.92
2023-01-11T20:39:05.197Z,76.46
2023-01-11T20:41:46.861Z,76.85
2023-01-11T20:44:16.082Z,78.01
2023-01-11T20:46:43.205Z,78.47
2023-01-11T20:49:09.779Z,77.28
2023-01-11T20:51:36.767Z,76.68
2023-01-11T20:54:04.773Z,77.59
2023-01-11T20:56:33.050Z,77.89
2023-01-11T20:59:01.220Z,77.62
2023-01-11T21:01:28.537Z,77.34
2023-01-11T21:03:58.333Z,77.17
2023-01-11T21:06:24.962Z,76.68
2023-01-11T21:08:56.261Z,77.40
2023-01-11T21:11:23.177Z,77.87
2023-01-11T21:13:54.243Z,77.95
2023-01-11T21:16:22.930Z,77.33
2023-01-11T21:18:57.830Z,77.46
2023-01-11T21:21:25.518Z,76.76
2023-01-11T21:24:00.119Z,76.98
2023-01-11T21:26:27.897Z,76.41
2023-01-11T21:28:58.709Z,77.31
2023-01-11T21:31:27.059Z,76.92
2023-01-11T21:33:53.594Z,74.91
2023-01-11T21:36:22.383Z,75.28
2023-01-11T21:38:49.102Z,75.83
2023-01-11T21:41:40.213Z,77.41
2023-01-11T21:44:08.003Z,76.62
2023-01-11T21:46:34.983Z,76.23
2023-01-11T21:49:01.673Z,76.54
2023-01-11T21:51:29.844Z,76.00
2023-01-11T21:53:57.277Z,76.04
2023-01-11T21:56:24.028Z,74.12
2023-01-11T21:58:50.696Z,75.98
2023-01-11T22:01:20.250Z,75.71
2023-01-11T22:03:46.918Z,74.28
2023-01-11T22:06:15.681Z,75.62
2023-01-11T22:08:45.261Z,74.47
2023-01-11T22:11:13.835Z,76.06
2023-01-11T22:13:40.726Z,75.36
2023-01-11T22:16:12.517Z,75.48
2023-01-11T22:18:41.118Z,75.38
2023-01-11T22:21:10.661Z,77.42
2023-01-11T22:23:37.568Z,75.31
2023-01-11T22:26:08.505Z,76.56
2023-01-11T22:28:57.843Z,76.11
2023-01-11T22:31:26.456Z,76.80
2023-01-11T22:33:53.465Z,77.00
2023-01-11T22:36:20.555Z,77.07
2023-01-11T22:38:47.400Z,75.72
2023-01-11T22:41:14.988Z,76.13
2023-01-11T22:43:45.243Z,76.68
2023-01-11T22:46:17.527Z,77.15
2023-01-11T22:48:44.112Z,76.73
2023-01-11T22:51:11.341Z,79.12
2023-01-11T22:53:42.688Z,78.30
2023-01-11T22:56:10.060Z,78.33
2023-01-11T22:58:36.619Z,78.15
2023-01-11T23:01:13.645Z,77.66
2023-01-11T23:03:41.346Z,79.74
2023-01-11T23:06:08.946Z,78.94
2023-01-11T23:08:41.452Z,79.57
2023-01-11T23:11:08.743Z,79.32
2023-01-11T23:13:54.946Z,79.12
2023-01-11T23:16:24.457Z,78.08
2023-01-11T23:18:50.949Z,80.27
2023-01-11T23:21:17.429Z,80.24
2023-01-11T23:23:44.020Z,81.14
2023-01-11T23:26:12.201Z,80.89
2023-01-11T23:28:39.322Z,81.47
2023-01-11T23:31:19.449Z,82.89
2023-01-11T23:33:47.531Z,82.73
2023-01-11T23:36:14.555Z,83.94
2023-01-11T23:38:41.391Z,82.09
2023-01-11T23:41:28.417Z,82.71
2023-01-11T23:43:54.992Z,85.41
2023-01-11T23:46:40.539Z,83.90
2023-01-11T23:49:08.260Z,85.00
2023-01-11T23:51:35.624Z,85.06
2023-01-11T23:54:05.574Z,84.06
2023-01-11T23:56:33.073Z,83.23
2023-01-11T23:59:00.056Z,85.23
